sensor_id;sensor_type;location;lat;lon;timestamp;pressure;altitude;pressure_sealevel;temperature;humidity
17311;BME280;8773;43.300;0.394;2023-09-19T00:01:40;100148.09;;;16.41;76.95
17311;BME280;8773;43.300;0.394;2023-09-19T00:04:09;100137.97;;;16.43;76.70
17311;BME280;8773;43.300;0.394;2023-09-19T00:06:37;100126.91;;;16.52;75.82
17311;BME280;8773;43.300;0.394;2023-09-19T00:09:05;100121.44;;;16.60;75.80
17311;BME280;8773;43.300;0.394;2023-09-19T00:11:32;100124.53;;;16.72;75.24
17311;BME280;8773;43.300;0.394;2023-09-19T00:14:00;100125.44;;;16.79;74.92
17311;BME280;8773;43.300;0.394;2023-09-19T00:16:27;100120.97;;;16.86;74.64
17311;BME280;8773;43.300;0.394;2023-09-19T00:18:54;100123.31;;;16.89;74.63
17311;BME280;8773;43.300;0.394;2023-09-19T00:21:23;100127.88;;;16.89;74.68
17311;BME280;8773;43.300;0.394;2023-09-19T00:23:50;100134.75;;;16.91;74.27
17311;BME280;8773;43.300;0.394;2023-09-19T00:26:18;100143.13;;;16.96;73.87
17311;BME280;8773;43.300;0.394;2023-09-19T00:28:45;100143.31;;;16.80;74.21
17311;BME280;8773;43.300;0.394;2023-09-19T00:31:13;100145.56;;;16.39;75.78
17311;BME280;8773;43.300;0.394;2023-09-19T00:33:40;100147.91;;;16.27;76.33
17311;BME280;8773;43.300;0.394;2023-09-19T00:36:08;100152.81;;;16.24;76.20
17311;BME280;8773;43.300;0.394;2023-09-19T00:38:37;100144.72;;;16.38;75.38
17311;BME280;8773;43.300;0.394;2023-09-19T00:41:04;100136.94;;;16.44;75.36
17311;BME280;8773;43.300;0.394;2023-09-19T00:43:32;100139.19;;;16.55;74.40
17311;BME280;8773;43.300;0.394;2023-09-19T00:45:59;100138.44;;;16.61;74.26
17311;BME280;8773;43.300;0.394;2023-09-19T00:48:27;100138.44;;;16.61;74.13
17311;BME280;8773;43.300;0.394;2023-09-19T00:50:57;100136.09;;;16.43;74.66
17311;BME280;8773;43.300;0.394;2023-09-19T00:53:26;100129.59;;;16.37;75.18
17311;BME280;8773;43.300;0.394;2023-09-19T00:55:55;100134.59;;;16.41;74.96
17311;BME280;8773;43.300;0.394;2023-09-19T00:58:22;100135.47;;;16.56;74.41
17311;BME280;8773;43.300;0.394;2023-09-19T01:00:50;100127.47;;;16.48;74.78
17311;BME280;8773;43.300;0.394;2023-09-19T01:03:18;100128.69;;;16.60;73.94
17311;BME280;8773;43.300;0.394;2023-09-19T01:05:46;100134.25;;;16.58;73.67
17311;BME280;8773;43.300;0.394;2023-09-19T01:08:13;100137.66;;;16.23;75.21
17311;BME280;8773;43.300;0.394;2023-09-19T01:10:46;100144.72;;;16.24;75.10
17311;BME280;8773;43.300;0.394;2023-09-19T01:13:23;100145.94;;;16.21;75.18
17311;BME280;8773;43.300;0.394;2023-09-19T01:16:01;100149.94;;;15.57;77.73
17311;BME280;8773;43.300;0.394;2023-09-19T01:18:35;100135.66;;;16.02;76.39
17311;BME280;8773;43.300;0.394;2023-09-19T01:21:12;100131.63;;;15.98;76.31
17311;BME280;8773;43.300;0.394;2023-09-19T01:24:00;100126.06;;;15.85;77.14
17311;BME280;8773;43.300;0.394;2023-09-19T01:26:52;100127.03;;;16.07;76.29
17311;BME280;8773;43.300;0.394;2023-09-19T01:29:33;100134.13;;;16.22;75.99
17311;BME280;8773;43.300;0.394;2023-09-19T01:32:05;100118.16;;;16.35;75.13
17311;BME280;8773;43.300;0.394;2023-09-19T01:34:46;100131.44;;;16.37;75.20
17311;BME280;8773;43.300;0.394;2023-09-19T01:37:14;100129.69;;;16.29;75.00
17311;BME280;8773;43.300;0.394;2023-09-19T01:39:41;100124.66;;;16.26;75.20
17311;BME280;8773;43.300;0.394;2023-09-19T01:42:17;100127.53;;;16.39;75.07
17311;BME280;8773;43.300;0.394;2023-09-19T01:44:54;100122.34;;;16.53;74.33
17311;BME280;8773;43.300;0.394;2023-09-19T01:47:32;100128.59;;;16.68;73.74
17311;BME280;8773;43.300;0.394;2023-09-19T01:50:06;100121.06;;;16.63;73.90
17311;BME280;8773;43.300;0.394;2023-09-19T01:52:47;100119.84;;;16.51;74.12
17311;BME280;8773;43.300;0.394;2023-09-19T01:55:16;100116.41;;;16.57;73.40
17311;BME280;8773;43.300;0.394;2023-09-19T01:58:01;100116.56;;;15.89;76.23
17311;BME280;8773;43.300;0.394;2023-09-19T02:00:32;100115.81;;;16.18;74.71
17311;BME280;8773;43.300;0.394;2023-09-19T02:03:03;100119.78;;;16.07;75.24
17311;BME280;8773;43.300;0.394;2023-09-19T02:05:30;100113.75;;;16.05;75.11
17311;BME280;8773;43.300;0.394;2023-09-19T02:07:58;100109.44;;;15.96;75.58
17311;BME280;8773;43.300;0.394;2023-09-19T02:10:25;100115.47;;;15.52;77.43
17311;BME280;8773;43.300;0.394;2023-09-19T02:12:53;100114.66;;;15.75;76.84
17311;BME280;8773;43.300;0.394;2023-09-19T02:15:20;100112.13;;;15.96;76.12
17311;BME280;8773;43.300;0.394;2023-09-19T02:17:48;100110.56;;;16.01;75.51
17311;BME280;8773;43.300;0.394;2023-09-19T02:20:16;100116.78;;;15.56;77.18
17311;BME280;8773;43.300;0.394;2023-09-19T02:22:44;100116.78;;;15.56;77.18
17311;BME280;8773;43.300;0.394;2023-09-19T02:25:11;100120.00;;;15.52;77.20
17311;BME280;8773;43.300;0.394;2023-09-19T02:27:39;100121.28;;;15.64;77.08
17311;BME280;8773;43.300;0.394;2023-09-19T02:30:07;100124.06;;;15.79;76.54
17311;BME280;8773;43.300;0.394;2023-09-19T02:32:34;100121.28;;;15.41;77.16
17311;BME280;8773;43.300;0.394;2023-09-19T02:35:03;100123.50;;;15.60;76.92
17311;BME280;8773;43.300;0.394;2023-09-19T02:37:32;100119.31;;;15.35;77.03
17311;BME280;8773;43.300;0.394;2023-09-19T02:40:00;100123.66;;;15.05;78.89
17311;BME280;8773;43.300;0.394;2023-09-19T02:42:27;100119.78;;;15.38;78.17
17311;BME280;8773;43.300;0.394;2023-09-19T02:44:55;100127.19;;;15.59;77.16
17311;BME280;8773;43.300;0.394;2023-09-19T02:47:22;100116.19;;;15.69;76.71
17311;BME280;8773;43.300;0.394;2023-09-19T02:49:50;100121.47;;;15.62;76.27
17311;BME280;8773;43.300;0.394;2023-09-19T02:52:17;100116.53;;;15.43;77.38
17311;BME280;8773;43.300;0.394;2023-09-19T02:54:46;100115.59;;;15.59;76.73
17311;BME280;8773;43.300;0.394;2023-09-19T02:57:14;100107.38;;;15.83;75.93
17311;BME280;8773;43.300;0.394;2023-09-19T02:59:41;100102.19;;;15.96;75.42
17311;BME280;8773;43.300;0.394;2023-09-19T03:02:09;100096.09;;;16.02;74.57
17311;BME280;8773;43.300;0.394;2023-09-19T03:04:36;100103.06;;;16.12;74.18
17311;BME280;8773;43.300;0.394;2023-09-19T03:07:04;100096.56;;;16.06;74.27
17311;BME280;8773;43.300;0.394;2023-09-19T03:09:31;100095.84;;;16.12;74.37
17311;BME280;8773;43.300;0.394;2023-09-19T03:12:00;100101.69;;;16.16;74.38
17311;BME280;8773;43.300;0.394;2023-09-19T03:14:28;100102.16;;;16.19;73.98
17311;BME280;8773;43.300;0.394;2023-09-19T03:16:55;100101.19;;;15.97;74.34
17311;BME280;8773;43.300;0.394;2023-09-19T03:19:22;100101.34;;;15.96;74.88
17311;BME280;8773;43.300;0.394;2023-09-19T03:21:50;100100.84;;;15.78;75.20
17311;BME280;8773;43.300;0.394;2023-09-19T03:24:17;100096.03;;;15.88;74.73
17311;BME280;8773;43.300;0.394;2023-09-19T03:26:45;100091.16;;;16.06;74.14
17311;BME280;8773;43.300;0.394;2023-09-19T03:29:14;100084.03;;;16.13;73.82
17311;BME280;8773;43.300;0.394;2023-09-19T03:31:41;100089.59;;;16.12;74.11
17311;BME280;8773;43.300;0.394;2023-09-19T03:34:09;100079.97;;;16.17;73.89
17311;BME280;8773;43.300;0.394;2023-09-19T03:36:36;100090.09;;;15.92;74.34
17311;BME280;8773;43.300;0.394;2023-09-19T03:39:06;100083.75;;;16.08;74.09
17311;BME280;8773;43.300;0.394;2023-09-19T03:41:34;100080.31;;;16.14;73.77
17311;BME280;8773;43.300;0.394;2023-09-19T03:44:01;100078.72;;;16.05;73.80
17311;BME280;8773;43.300;0.394;2023-09-19T03:46:30;100074.94;;;16.14;73.77
17311;BME280;8773;43.300;0.394;2023-09-19T03:48:58;100074.31;;;15.89;73.95
17311;BME280;8773;43.300;0.394;2023-09-19T03:51:25;100084.16;;;15.82;74.47
17311;BME280;8773;43.300;0.394;2023-09-19T03:53:52;100079.88;;;15.88;74.08
17311;BME280;8773;43.300;0.394;2023-09-19T03:56:20;100082.34;;;15.29;76.08
17311;BME280;8773;43.300;0.394;2023-09-19T03:58:47;100085.75;;;14.92;77.11
17311;BME280;8773;43.300;0.394;2023-09-19T04:01:15;100079.28;;;15.01;77.36
17311;BME280;8773;43.300;0.394;2023-09-19T04:03:43;100075.69;;;15.17;77.03
17311;BME280;8773;43.300;0.394;2023-09-19T04:06:11;100091.81;;;14.86;77.51
17311;BME280;8773;43.300;0.394;2023-09-19T04:08:38;100087.00;;;14.57;79.10
17311;BME280;8773;43.300;0.394;2023-09-19T04:11:06;100082.84;;;14.54;79.47
17311;BME280;8773;43.300;0.394;2023-09-19T04:13:33;100087.25;;;14.94;77.24
17311;BME280;8773;43.300;0.394;2023-09-19T04:16:01;100080.75;;;15.12;77.29
17311;BME280;8773;43.300;0.394;2023-09-19T04:18:28;100068.94;;;15.21;76.63
17311;BME280;8773;43.300;0.394;2023-09-19T04:20:57;100075.22;;;15.36;76.55
17311;BME280;8773;43.300;0.394;2023-09-19T04:23:24;100077.78;;;15.52;75.54
17311;BME280;8773;43.300;0.394;2023-09-19T04:25:51;100079.22;;;15.63;75.12
17311;BME280;8773;43.300;0.394;2023-09-19T04:28:19;100083.28;;;15.59;75.10
17311;BME280;8773;43.300;0.394;2023-09-19T04:30:46;100084.06;;;15.45;75.33
17311;BME280;8773;43.300;0.394;2023-09-19T04:33:14;100087.94;;;15.19;76.60
17311;BME280;8773;43.300;0.394;2023-09-19T04:35:41;100087.25;;;14.94;77.07
17311;BME280;8773;43.300;0.394;2023-09-19T04:38:10;100080.72;;;15.20;75.97
17311;BME280;8773;43.300;0.394;2023-09-19T04:40:37;100082.69;;;15.26;75.87
17311;BME280;8773;43.300;0.394;2023-09-19T04:43:05;100071.34;;;15.38;74.77
17311;BME280;8773;43.300;0.394;2023-09-19T04:45:32;100074.22;;;15.37;75.02
17311;BME280;8773;43.300;0.394;2023-09-19T04:47:59;100067.22;;;15.28;75.84
17311;BME280;8773;43.300;0.394;2023-09-19T04:50:27;100073.97;;;14.93;76.38
17311;BME280;8773;43.300;0.394;2023-09-19T04:52:54;100065.38;;;14.97;76.60
17311;BME280;8773;43.300;0.394;2023-09-19T04:55:23;100064.44;;;15.13;75.98
17311;BME280;8773;43.300;0.394;2023-09-19T04:57:51;100061.78;;;15.05;76.37
17311;BME280;8773;43.300;0.394;2023-09-19T05:00:19;100062.53;;;14.99;76.38
17311;BME280;8773;43.300;0.394;2023-09-19T05:02:49;100069.38;;;15.01;76.37
17311;BME280;8773;43.300;0.394;2023-09-19T05:05:16;100063.91;;;15.18;76.03
17311;BME280;8773;43.300;0.394;2023-09-19T05:07:45;100058.31;;;15.27;75.27
17311;BME280;8773;43.300;0.394;2023-09-19T05:10:13;100078.16;;;15.26;75.34
17311;BME280;8773;43.300;0.394;2023-09-19T05:12:41;100080.19;;;15.24;75.43
17311;BME280;8773;43.300;0.394;2023-09-19T05:15:09;100080.75;;;15.12;75.52
17311;BME280;8773;43.300;0.394;2023-09-19T05:17:36;100085.59;;;15.16;75.83
17311;BME280;8773;43.300;0.394;2023-09-19T05:20:04;100088.44;;;15.23;75.08
17311;BME280;8773;43.300;0.394;2023-09-19T05:22:32;100084.75;;;15.16;75.41
17311;BME280;8773;43.300;0.394;2023-09-19T05:24:59;100085.06;;;15.21;75.11
17311;BME280;8773;43.300;0.394;2023-09-19T05:27:27;100085.38;;;15.26;75.05
17311;BME280;8773;43.300;0.394;2023-09-19T05:29:55;100083.03;;;15.23;75.18
17311;BME280;8773;43.300;0.394;2023-09-19T05:32:23;100086.75;;;15.22;74.61
17311;BME280;8773;43.300;0.394;2023-09-19T05:34:50;100083.22;;;14.90;75.43
17311;BME280;8773;43.300;0.394;2023-09-19T05:37:18;100089.94;;;14.94;75.32
17311;BME280;8773;43.300;0.394;2023-09-19T05:39:45;100084.94;;;14.83;76.25
17311;BME280;8773;43.300;0.394;2023-09-19T05:42:12;100084.44;;;14.71;75.75
17311;BME280;8773;43.300;0.394;2023-09-19T05:44:40;100091.91;;;15.00;75.46
17311;BME280;8773;43.300;0.394;2023-09-19T05:47:08;100095.31;;;14.94;75.47
17311;BME280;8773;43.300;0.394;2023-09-19T05:49:36;100098.94;;;15.01;75.58
17311;BME280;8773;43.300;0.394;2023-09-19T05:52:08;100098.44;;;15.06;74.95
17311;BME280;8773;43.300;0.394;2023-09-19T05:54:35;100093.53;;;15.10;74.59
17311;BME280;8773;43.300;0.394;2023-09-19T05:57:03;100101.84;;;15.31;74.18
17311;BME280;8773;43.300;0.394;2023-09-19T05:59:30;100099.41;;;15.13;74.21
17311;BME280;8773;43.300;0.394;2023-09-19T06:01:58;100104.44;;;15.16;74.80
17311;BME280;8773;43.300;0.394;2023-09-19T06:04:26;100098.16;;;15.24;74.44
17311;BME280;8773;43.300;0.394;2023-09-19T06:06:54;100098.69;;;15.19;74.74
17311;BME280;8773;43.300;0.394;2023-09-19T06:09:21;100093.75;;;15.31;74.45
17311;BME280;8773;43.300;0.394;2023-09-19T06:11:50;100095.00;;;15.43;73.70
17311;BME280;8773;43.300;0.394;2023-09-19T06:14:17;100092.88;;;15.38;74.23
17311;BME280;8773;43.300;0.394;2023-09-19T06:16:45;100096.31;;;15.47;73.57
17311;BME280;8773;43.300;0.394;2023-09-19T06:19:12;100100.34;;;15.51;73.64
17311;BME280;8773;43.300;0.394;2023-09-19T06:21:41;100099.44;;;15.59;73.08
17311;BME280;8773;43.300;0.394;2023-09-19T06:24:08;100098.84;;;15.71;72.21
17311;BME280;8773;43.300;0.394;2023-09-19T06:26:36;100101.25;;;15.66;72.56
17311;BME280;8773;43.300;0.394;2023-09-19T06:29:03;100105.44;;;15.69;72.22
17311;BME280;8773;43.300;0.394;2023-09-19T06:31:31;100104.00;;;15.58;72.65
17311;BME280;8773;43.300;0.394;2023-09-19T06:33:58;100093.38;;;15.42;73.13
17311;BME280;8773;43.300;0.394;2023-09-19T06:36:26;100092.16;;;15.67;72.48
17311;BME280;8773;43.300;0.394;2023-09-19T06:38:54;100096.78;;;15.82;72.35
17311;BME280;8773;43.300;0.394;2023-09-19T06:41:22;100094.38;;;15.87;71.96
17311;BME280;8773;43.300;0.394;2023-09-19T06:43:49;100087.38;;;16.15;71.10
17311;BME280;8773;43.300;0.394;2023-09-19T06:46:17;100091.94;;;15.77;71.66
17311;BME280;8773;43.300;0.394;2023-09-19T06:48:44;100088.91;;;15.95;71.90
17311;BME280;8773;43.300;0.394;2023-09-19T06:51:12;100100.19;;;15.76;72.08
17311;BME280;8773;43.300;0.394;2023-09-19T06:53:39;100101.00;;;15.99;72.33
17311;BME280;8773;43.300;0.394;2023-09-19T06:56:08;100093.56;;;16.68;69.99
17311;BME280;8773;43.300;0.394;2023-09-19T06:58:35;100086.34;;;17.41;68.54
17311;BME280;8773;43.300;0.394;2023-09-19T07:01:03;100083.94;;;18.16;66.66
17311;BME280;8773;43.300;0.394;2023-09-19T07:03:30;100084.19;;;18.90;64.20
17311;BME280;8773;43.300;0.394;2023-09-19T07:05:58;100073.78;;;19.55;61.06
17311;BME280;8773;43.300;0.394;2023-09-19T07:08:25;100086.53;;;20.07;60.31
17311;BME280;8773;43.300;0.394;2023-09-19T07:10:52;100070.69;;;20.24;58.35
17311;BME280;8773;43.300;0.394;2023-09-19T07:13:21;100071.09;;;20.27;58.35
17311;BME280;8773;43.300;0.394;2023-09-19T07:15:49;100074.00;;;20.39;56.48
17311;BME280;8773;43.300;0.394;2023-09-19T07:18:16;100070.63;;;20.57;57.65
17311;BME280;8773;43.300;0.394;2023-09-19T07:20:45;100077.19;;;21.01;55.82
17311;BME280;8773;43.300;0.394;2023-09-19T07:23:12;100086.06;;;21.21;55.13
17311;BME280;8773;43.300;0.394;2023-09-19T07:25:40;100083.97;;;21.23;55.28
17311;BME280;8773;43.300;0.394;2023-09-19T07:28:07;100083.97;;;21.23;54.82
17311;BME280;8773;43.300;0.394;2023-09-19T07:30:37;100082.84;;;21.37;53.37
17311;BME280;8773;43.300;0.394;2023-09-19T07:33:07;100088.72;;;20.83;55.06
17311;BME280;8773;43.300;0.394;2023-09-19T07:35:35;100082.06;;;20.65;56.58
17311;BME280;8773;43.300;0.394;2023-09-19T07:38:02;100088.72;;;20.83;55.39
17311;BME280;8773;43.300;0.394;2023-09-19T07:40:30;100088.72;;;20.89;56.19
17311;BME280;8773;43.300;0.394;2023-09-19T07:42:57;100091.13;;;20.20;57.00
17311;BME280;8773;43.300;0.394;2023-09-19T07:45:25;100089.97;;;19.28;58.98
17311;BME280;8773;43.300;0.394;2023-09-19T07:47:53;100091.94;;;19.87;59.62
17311;BME280;8773;43.300;0.394;2023-09-19T07:50:21;100081.94;;;20.27;59.49
17311;BME280;8773;43.300;0.394;2023-09-19T07:52:50;100089.03;;;20.42;57.90
17311;BME280;8773;43.300;0.394;2023-09-19T07:55:17;100087.72;;;20.64;58.06
17311;BME280;8773;43.300;0.394;2023-09-19T07:57:45;100087.97;;;21.14;56.51
17311;BME280;8773;43.300;0.394;2023-09-19T08:00:13;100077.59;;;21.42;56.20
17311;BME280;8773;43.300;0.394;2023-09-19T08:02:41;100081.44;;;21.66;55.58
17311;BME280;8773;43.300;0.394;2023-09-19T08:05:11;100092.00;;;21.81;55.39
17311;BME280;8773;43.300;0.394;2023-09-19T08:07:42;100091.81;;;21.76;55.11
17311;BME280;8773;43.300;0.394;2023-09-19T08:10:10;100096.03;;;21.72;54.86
17311;BME280;8773;43.300;0.394;2023-09-19T08:12:37;100096.47;;;21.69;54.91
17311;BME280;8773;43.300;0.394;2023-09-19T08:15:05;100109.41;;;21.35;55.79
17311;BME280;8773;43.300;0.394;2023-09-19T08:17:34;100108.56;;;21.35;55.79
17311;BME280;8773;43.300;0.394;2023-09-19T08:20:02;100111.13;;;21.23;57.05
17311;BME280;8773;43.300;0.394;2023-09-19T08:22:31;100100.75;;;21.07;57.42
17311;BME280;8773;43.300;0.394;2023-09-19T08:24:58;100110.06;;;21.24;56.99
17311;BME280;8773;43.300;0.394;2023-09-19T08:27:25;100105.00;;;21.34;58.05
17311;BME280;8773;43.300;0.394;2023-09-19T08:29:53;100116.78;;;21.15;57.74
17311;BME280;8773;43.300;0.394;2023-09-19T08:32:20;100117.75;;;20.76;58.40
17311;BME280;8773;43.300;0.394;2023-09-19T08:34:48;100115.47;;;21.30;57.50
17311;BME280;8773;43.300;0.394;2023-09-19T08:37:15;100115.19;;;21.45;56.99
17311;BME280;8773;43.300;0.394;2023-09-19T08:39:44;100110.66;;;21.71;56.19
17311;BME280;8773;43.300;0.394;2023-09-19T08:42:11;100108.56;;;21.73;55.85
17311;BME280;8773;43.300;0.394;2023-09-19T08:44:39;100118.56;;;21.79;56.12
17311;BME280;8773;43.300;0.394;2023-09-19T08:47:09;100115.81;;;21.85;56.37
17311;BME280;8773;43.300;0.394;2023-09-19T08:49:41;100102.75;;;21.94;56.14
17311;BME280;8773;43.300;0.394;2023-09-19T08:52:20;100113.53;;;20.99;59.02
17311;BME280;8773;43.300;0.394;2023-09-19T08:54:52;100114.25;;;21.20;58.18
17311;BME280;8773;43.300;0.394;2023-09-19T08:57:19;100110.69;;;21.26;58.67
17311;BME280;8773;43.300;0.394;2023-09-19T08:59:48;100117.47;;;21.48;58.58
17311;BME280;8773;43.300;0.394;2023-09-19T09:02:16;100110.72;;;21.57;58.28
17311;BME280;8773;43.300;0.394;2023-09-19T09:04:45;100127.97;;;21.38;57.65
17311;BME280;8773;43.300;0.394;2023-09-19T09:07:13;100126.50;;;20.97;59.42
17311;BME280;8773;43.300;0.394;2023-09-19T09:09:41;100120.72;;;21.25;59.03
17311;BME280;8773;43.300;0.394;2023-09-19T09:12:11;100125.06;;;21.33;58.91
17311;BME280;8773;43.300;0.394;2023-09-19T09:14:39;100123.44;;;21.25;59.25
17311;BME280;8773;43.300;0.394;2023-09-19T09:17:07;100119.16;;;21.05;59.37
17311;BME280;8773;43.300;0.394;2023-09-19T09:19:34;100126.09;;;21.39;58.05
17311;BME280;8773;43.300;0.394;2023-09-19T09:22:09;100127.78;;;21.33;58.61
17311;BME280;8773;43.300;0.394;2023-09-19T09:24:37;100120.53;;;21.20;58.88
17311;BME280;8773;43.300;0.394;2023-09-19T09:27:05;100122.75;;;20.72;60.67
17311;BME280;8773;43.300;0.394;2023-09-19T09:29:45;100126.28;;;20.92;59.96
17311;BME280;8773;43.300;0.394;2023-09-19T09:32:19;100114.63;;;20.72;60.12
17311;BME280;8773;43.300;0.394;2023-09-19T09:34:49;100117.50;;;21.04;59.36
17311;BME280;8773;43.300;0.394;2023-09-19T09:37:17;100108.59;;;21.28;58.92
17311;BME280;8773;43.300;0.394;2023-09-19T09:39:52;100115.47;;;21.30;59.55
17311;BME280;8773;43.300;0.394;2023-09-19T09:42:29;100115.50;;;21.24;59.83
17311;BME280;8773;43.300;0.394;2023-09-19T09:45:12;100121.19;;;21.09;59.66
17311;BME280;8773;43.300;0.394;2023-09-19T09:47:47;100111.75;;;21.18;58.16
17311;BME280;8773;43.300;0.394;2023-09-19T09:50:23;100114.22;;;20.68;59.51
17311;BME280;8773;43.300;0.394;2023-09-19T09:52:51;100118.69;;;20.17;61.46
17311;BME280;8773;43.300;0.394;2023-09-19T09:55:18;100115.25;;;20.74;60.67
17311;BME280;8773;43.300;0.394;2023-09-19T09:58:15;100112.13;;;20.71;58.18
17311;BME280;8773;43.300;0.394;2023-09-19T10:00:53;100113.13;;;20.83;58.81
17311;BME280;8773;43.300;0.394;2023-09-19T10:03:20;100107.69;;;21.03;59.00
17311;BME280;8773;43.300;0.394;2023-09-19T10:05:53;100105.63;;;21.36;57.52
17311;BME280;8773;43.300;0.394;2023-09-19T10:08:21;100098.16;;;21.63;57.58
17311;BME280;8773;43.300;0.394;2023-09-19T10:10:48;100094.09;;;21.79;57.51
17311;BME280;8773;43.300;0.394;2023-09-19T10:13:15;100091.38;;;22.04;56.26
17311;BME280;8773;43.300;0.394;2023-09-19T10:15:44;100095.97;;;21.78;56.63
17311;BME280;8773;43.300;0.394;2023-09-19T10:18:17;100094.06;;;21.47;58.37
17311;BME280;8773;43.300;0.394;2023-09-19T10:20:47;100086.06;;;21.52;56.68
17311;BME280;8773;43.300;0.394;2023-09-19T10:23:17;100092.75;;;21.56;56.47
17311;BME280;8773;43.300;0.394;2023-09-19T10:25:45;100092.63;;;21.45;54.20
17311;BME280;8773;43.300;0.394;2023-09-19T10:28:15;100091.88;;;21.69;53.91
17311;BME280;8773;43.300;0.394;2023-09-19T10:30:45;100090.53;;;21.78;52.89
17311;BME280;8773;43.300;0.394;2023-09-19T10:33:14;100083.13;;;21.54;53.92
17311;BME280;8773;43.300;0.394;2023-09-19T10:35:44;100087.66;;;21.98;53.12
17311;BME280;8773;43.300;0.394;2023-09-19T10:38:13;100086.91;;;21.91;51.72
17311;BME280;8773;43.300;0.394;2023-09-19T10:40:48;100082.56;;;22.08;52.70
17311;BME280;8773;43.300;0.394;2023-09-19T10:43:18;100078.66;;;22.22;52.99
17311;BME280;8773;43.300;0.394;2023-09-19T10:45:46;100063.47;;;22.15;52.82
17311;BME280;8773;43.300;0.394;2023-09-19T10:48:14;100069.88;;;22.45;52.53
17311;BME280;8773;43.300;0.394;2023-09-19T10:50:47;100065.41;;;22.33;53.14
17311;BME280;8773;43.300;0.394;2023-09-19T10:53:19;100061.22;;;22.73;53.18
17311;BME280;8773;43.300;0.394;2023-09-19T10:55:54;100062.75;;;22.81;51.94
17311;BME280;8773;43.300;0.394;2023-09-19T10:58:29;100056.19;;;23.37;51.79
17311;BME280;8773;43.300;0.394;2023-09-19T11:00:59;100039.75;;;23.43;50.71
17311;BME280;8773;43.300;0.394;2023-09-19T11:03:27;100052.97;;;23.28;51.31
17311;BME280;8773;43.300;0.394;2023-09-19T11:06:07;100055.28;;;23.13;52.35
17311;BME280;8773;43.300;0.394;2023-09-19T11:08:55;100051.19;;;23.04;52.16
17311;BME280;8773;43.300;0.394;2023-09-19T11:11:40;100046.97;;;23.08;51.13
17311;BME280;8773;43.300;0.394;2023-09-19T11:14:37;100046.06;;;23.14;50.49
17311;BME280;8773;43.300;0.394;2023-09-19T11:20:22;100038.91;;;22.64;51.38
17311;BME280;8773;43.300;0.394;2023-09-19T11:23:18;100026.34;;;23.42;51.12
17311;BME280;8773;43.300;0.394;2023-09-19T11:25:46;100029.47;;;23.69;49.45
17311;BME280;8773;43.300;0.394;2023-09-19T11:28:34;100026.00;;;24.03;48.55
17311;BME280;8773;43.300;0.394;2023-09-19T11:34:46;100020.13;;;23.23;50.75
17311;BME280;8773;43.300;0.394;2023-09-19T11:40:28;100020.66;;;23.43;50.01
17311;BME280;8773;43.300;0.394;2023-09-19T11:42:56;100004.75;;;23.82;49.79
17311;BME280;8773;43.300;0.394;2023-09-19T11:48:28;100006.91;;;24.03;48.46
17311;BME280;8773;43.300;0.394;2023-09-19T11:50:56;99999.41;;;24.34;48.69
17311;BME280;8773;43.300;0.394;2023-09-19T11:53:31;99996.28;;;23.48;49.33
17311;BME280;8773;43.300;0.394;2023-09-19T11:56:00;99989.56;;;23.62;50.21
17311;BME280;8773;43.300;0.394;2023-09-19T11:58:28;99983.66;;;24.01;49.77
17311;BME280;8773;43.300;0.394;2023-09-19T12:00:56;99985.28;;;24.13;49.18
17311;BME280;8773;43.300;0.394;2023-09-19T12:03:29;99980.22;;;23.82;47.86
17311;BME280;8773;43.300;0.394;2023-09-19T12:05:58;99982.97;;;24.05;48.25
17311;BME280;8773;43.300;0.394;2023-09-19T12:08:25;99985.22;;;23.97;47.93
17311;BME280;8773;43.300;0.394;2023-09-19T12:10:53;99970.56;;;23.68;48.78
17311;BME280;8773;43.300;0.394;2023-09-19T12:13:22;99969.91;;;23.95;48.71
17311;BME280;8773;43.300;0.394;2023-09-19T12:15:49;99973.13;;;24.04;48.15
17311;BME280;8773;43.300;0.394;2023-09-19T12:18:26;99967.84;;;24.14;48.92
17311;BME280;8773;43.300;0.394;2023-09-19T12:20:54;99966.47;;;23.88;48.21
17311;BME280;8773;43.300;0.394;2023-09-19T12:23:21;99960.03;;;23.59;48.13
17311;BME280;8773;43.300;0.394;2023-09-19T12:25:49;99963.00;;;23.58;48.72
17311;BME280;8773;43.300;0.394;2023-09-19T12:28:16;99956.22;;;23.72;48.37
17311;BME280;8773;43.300;0.394;2023-09-19T12:30:45;99941.69;;;23.90;47.64
17311;BME280;8773;43.300;0.394;2023-09-19T12:33:16;99940.63;;;23.91;48.99
17311;BME280;8773;43.300;0.394;2023-09-19T12:35:44;99939.97;;;24.12;48.74
17311;BME280;8773;43.300;0.394;2023-09-19T12:38:22;99927.13;;;24.36;47.18
17311;BME280;8773;43.300;0.394;2023-09-19T12:40:50;99923.09;;;24.50;47.92
17311;BME280;8773;43.300;0.394;2023-09-19T12:43:18;99916.75;;;24.61;47.28
17311;BME280;8773;43.300;0.394;2023-09-19T12:45:47;99917.44;;;24.17;47.17
17311;BME280;8773;43.300;0.394;2023-09-19T12:48:19;99914.81;;;24.34;47.16
17311;BME280;8773;43.300;0.394;2023-09-19T12:50:59;99915.53;;;24.41;46.90
17311;BME280;8773;43.300;0.394;2023-09-19T12:53:27;99900.56;;;24.43;46.54
17311;BME280;8773;43.300;0.394;2023-09-19T12:55:58;99904.03;;;24.15;46.94
17311;BME280;8773;43.300;0.394;2023-09-19T12:58:26;99893.19;;;24.04;48.06
17311;BME280;8773;43.300;0.394;2023-09-19T13:00:55;99899.59;;;24.38;47.80
17311;BME280;8773;43.300;0.394;2023-09-19T13:03:26;99885.03;;;24.20;48.27
17311;BME280;8773;43.300;0.394;2023-09-19T13:05:55;99882.63;;;24.36;48.02
17311;BME280;8773;43.300;0.394;2023-09-19T13:08:26;99884.19;;;24.43;47.98
17311;BME280;8773;43.300;0.394;2023-09-19T13:11:02;99872.63;;;24.53;47.45
17311;BME280;8773;43.300;0.394;2023-09-19T13:13:33;99868.44;;;24.62;46.82
17311;BME280;8773;43.300;0.394;2023-09-19T13:16:03;99863.16;;;24.72;47.72
17311;BME280;8773;43.300;0.394;2023-09-19T13:18:31;99865.59;;;24.57;47.53
17311;BME280;8773;43.300;0.394;2023-09-19T13:21:07;99869.13;;;24.29;47.45
17311;BME280;8773;43.300;0.394;2023-09-19T13:23:35;99857.13;;;24.42;46.78
17311;BME280;8773;43.300;0.394;2023-09-19T13:26:02;99854.78;;;24.62;47.98
17311;BME280;8773;43.300;0.394;2023-09-19T13:28:30;99846.81;;;25.06;47.28